createdAt,value
2018-09-14T00:01:08.663Z,926.02
2018-09-14T00:02:40.434Z,926.09
2018-09-14T00:04:11.805Z,926.06
2018-09-14T00:05:43.376Z,926.11
2018-09-14T00:07:15.251Z,926.08
2018-09-14T00:08:46.620Z,926.11
2018-09-14T00:10:18.090Z,926.09
2018-09-14T00:11:49.661Z,926.11
2018-09-14T00:13:21.232Z,926.14
2018-09-14T00:14:53.710Z,926.09
2018-09-14T00:16:24.375Z,926.15
2018-09-14T00:17:55.946Z,926.16
2018-09-14T00:19:27.517Z,926.20
2018-09-14T00:20:59.340Z,926.19
2018-09-14T00:22:30.658Z,926.24
2018-09-14T00:24:02.234Z,926.25
2018-09-14T00:25:33.801Z,926.22
2018-09-14T00:27:05.472Z,926.21
2018-09-14T00:28:36.943Z,926.17
2018-09-14T00:30:08.514Z,926.16
2018-09-14T00:31:40.617Z,926.17
2018-09-14T00:33:11.759Z,926.19
2018-09-14T00:34:43.228Z,926.19
2018-09-14T00:36:14.800Z,926.20
2018-09-14T00:37:46.372Z,926.24
2018-09-14T00:39:18.149Z,926.19
2018-09-14T00:40:49.512Z,926.20
2018-09-14T00:42:21.124Z,926.24
2018-09-14T00:43:52.654Z,926.26
2018-09-14T00:45:24.526Z,926.20
2018-09-14T00:48:27.369Z,926.10
2018-09-14T00:49:58.940Z,926.13
2018-09-14T00:51:30.612Z,926.08
2018-09-14T00:53:02.082Z,926.06
2018-09-14T00:54:33.653Z,926.07
2018-09-14T00:56:05.224Z,926.05
2018-09-14T00:57:36.996Z,926.05
2018-09-14T00:59:08.367Z,926.05
2018-09-14T01:00:39.938Z,926.04
2018-09-14T01:02:11.509Z,926.08
2018-09-14T01:03:43.181Z,926.06
2018-09-14T01:05:14.653Z,926.01
2018-09-14T01:06:46.224Z,925.99
2018-09-14T01:08:17.793Z,926.02
2018-09-14T01:09:49.464Z,926.04
2018-09-14T01:11:20.936Z,925.97
2018-09-14T01:14:24.077Z,925.92
2018-09-14T01:15:55.900Z,925.90
2018-09-14T01:17:27.219Z,925.93
2018-09-14T01:18:59.321Z,925.93
2018-09-14T01:20:30.360Z,925.96
2018-09-14T01:22:02.031Z,926.01
2018-09-14T01:23:33.513Z,926.02
2018-09-14T01:25:05.073Z,926.02
2018-09-14T01:26:36.643Z,926.04
2018-09-14T01:28:08.515Z,926.10
2018-09-14T01:29:39.785Z,926.09
2018-09-14T01:31:11.355Z,926.14
2018-09-14T01:32:42.926Z,926.17
2018-09-14T01:34:14.698Z,926.11
2018-09-14T01:35:46.069Z,926.12
2018-09-14T01:37:17.639Z,926.11
2018-09-14T01:38:49.210Z,926.12
2018-09-14T01:40:20.881Z,926.13
2018-09-14T01:41:52.352Z,926.11
2018-09-14T01:43:23.923Z,926.09
2018-09-14T01:44:55.493Z,926.06
2018-09-14T01:46:27.365Z,926.11
2018-09-14T01:47:58.635Z,926.09
2018-09-14T01:49:30.206Z,926.11
2018-09-14T01:51:01.780Z,926.09
2018-09-14T01:52:33.548Z,926.04
2018-09-14T01:54:04.918Z,926.03
2018-09-14T01:55:36.492Z,925.97
2018-09-14T01:57:08.059Z,925.99
2018-09-14T01:58:39.931Z,925.95
2018-09-14T02:00:11.201Z,925.97
2018-09-14T02:01:42.772Z,925.99
2018-09-14T02:03:14.345Z,925.97
2018-09-14T02:04:46.014Z,925.99
2018-09-14T02:06:17.484Z,925.97
2018-09-14T02:09:20.626Z,926.05
2018-09-14T02:12:23.969Z,926.06
2018-09-14T02:13:55.340Z,926.07
2018-09-14T02:15:26.911Z,926.04
2018-09-14T02:16:58.483Z,926.03
2018-09-14T02:18:30.194Z,925.98
2018-09-14T02:20:01.636Z,925.93
2018-09-14T02:21:33.218Z,925.87
2018-09-14T02:23:04.768Z,925.83
2018-09-14T02:24:36.437Z,925.76
2018-09-14T02:26:07.908Z,925.79
2018-09-14T02:29:11.049Z,925.65
2018-09-14T02:30:43.021Z,925.56
2018-09-14T02:32:14.191Z,925.48
2018-09-14T02:33:45.771Z,925.42
2018-09-14T02:35:17.333Z,925.44
2018-09-14T02:36:49.004Z,925.39
2018-09-14T02:38:20.475Z,925.43
2018-09-14T02:39:52.072Z,925.43
2018-09-14T02:41:23.636Z,925.42
2018-09-14T02:44:26.908Z,925.43
2018-09-14T02:45:58.329Z,925.38
2018-09-14T02:47:29.950Z,925.32
2018-09-14T02:49:01.470Z,925.28
2018-09-14T02:50:33.241Z,925.26
2018-09-14T02:52:04.611Z,925.22
2018-09-14T02:53:36.182Z,925.22
2018-09-14T02:55:07.754Z,925.23
2018-09-14T02:56:39.424Z,925.26
2018-09-14T02:58:10.894Z,925.26
2018-09-14T02:59:42.972Z,925.32
2018-09-14T03:01:14.036Z,925.34
2018-09-14T03:02:45.907Z,925.30
2018-09-14T03:04:17.177Z,925.20
2018-09-14T03:05:48.752Z,925.20
2018-09-14T03:07:20.320Z,925.21
2018-09-14T03:08:52.090Z,925.20
2018-09-14T03:10:23.461Z,925.17
2018-09-14T03:11:55.032Z,925.16
2018-09-14T03:13:26.600Z,925.18
2018-09-14T03:14:58.272Z,925.20
2018-09-14T03:16:29.745Z,925.17
2018-09-14T03:18:01.314Z,925.24
2018-09-14T03:19:32.883Z,925.26
2018-09-14T03:21:04.555Z,925.23
2018-09-14T03:22:36.025Z,925.19
2018-09-14T03:24:07.599Z,925.25
2018-09-14T03:25:39.169Z,925.31
2018-09-14T03:27:10.938Z,925.34
2018-09-14T03:28:42.311Z,925.38
2018-09-14T03:30:13.880Z,925.34
2018-09-14T03:31:45.451Z,925.34
2018-09-14T03:33:17.322Z,925.26
2018-09-14T03:34:48.592Z,925.28
2018-09-14T03:36:20.166Z,925.28
2018-09-14T03:37:51.735Z,925.27
2018-09-14T03:39:23.445Z,925.30
2018-09-14T03:42:26.451Z,925.31
2018-09-14T03:43:58.019Z,925.26
2018-09-14T03:45:29.792Z,925.23
2018-09-14T03:47:01.161Z,925.17
2018-09-14T03:48:32.733Z,925.10
2018-09-14T03:50:04.309Z,925.06
2018-09-14T03:51:36.177Z,925.06
2018-09-14T03:53:07.448Z,925.10
2018-09-14T03:54:39.019Z,925.14
2018-09-14T03:56:10.590Z,925.10
2018-09-14T03:57:42.262Z,925.08
2018-09-14T03:59:13.736Z,925.03
2018-09-14T04:00:45.304Z,924.97
2018-09-14T04:02:16.875Z,924.84
2018-09-14T04:03:48.847Z,924.81
2018-09-14T04:05:20.023Z,924.80
2018-09-14T04:08:23.772Z,924.83
2018-09-14T04:09:54.853Z,924.85
2018-09-14T04:11:26.307Z,924.83
2018-09-14T04:14:29.450Z,924.73
2018-09-14T04:16:01.125Z,924.67
2018-09-14T04:17:32.592Z,924.63
2018-09-14T04:19:04.164Z,924.53
2018-09-14T04:20:35.736Z,924.52
2018-09-14T04:22:07.709Z,924.51
2018-09-14T04:23:38.952Z,924.56
2018-09-14T04:25:10.449Z,924.66
2018-09-14T04:26:42.020Z,924.70
2018-09-14T04:28:13.691Z,924.77
2018-09-14T04:29:45.165Z,924.75
2018-09-14T04:31:16.733Z,924.73
2018-09-14T04:32:48.303Z,924.67
2018-09-14T04:34:20.174Z,924.61
2018-09-14T04:35:51.445Z,924.69
2018-09-14T04:37:23.017Z,924.69
2018-09-14T04:38:54.588Z,924.59
2018-09-14T04:40:26.359Z,924.58
2018-09-14T04:41:57.729Z,924.65
2018-09-14T04:43:29.300Z,924.60
2018-09-14T04:45:00.877Z,924.54
2018-09-14T04:46:32.542Z,924.51
2018-09-14T04:48:04.014Z,924.48
2018-09-14T04:49:35.584Z,924.52
2018-09-14T04:51:07.155Z,924.44
2018-09-14T04:52:39.027Z,924.46
2018-09-14T04:54:10.307Z,924.34
2018-09-14T04:55:41.872Z,924.25
2018-09-14T04:57:13.520Z,924.13
2018-09-14T04:58:45.266Z,924.11
2018-09-14T05:00:16.584Z,924.05
2018-09-14T05:01:48.155Z,924.02
2018-09-14T05:03:19.765Z,923.90
2018-09-14T05:06:23.172Z,923.85
2018-09-14T05:07:54.442Z,923.81
2018-09-14T05:09:26.015Z,923.75
2018-09-14T05:10:58.121Z,923.74
2018-09-14T05:12:29.257Z,923.78
2018-09-14T05:14:00.775Z,923.74
2018-09-14T05:17:03.872Z,923.71
2018-09-14T05:18:35.645Z,923.64
2018-09-14T05:20:07.016Z,923.57
2018-09-14T05:21:38.588Z,923.41
2018-09-14T05:23:10.159Z,923.42
2018-09-14T05:24:42.033Z,923.44
2018-09-14T05:26:13.302Z,923.36
2018-09-14T05:27:44.873Z,923.35
2018-09-14T05:29:16.445Z,923.37
2018-09-14T05:30:48.117Z,923.40
2018-09-14T05:32:19.588Z,923.31
2018-09-14T05:33:51.160Z,923.37
2018-09-14T05:35:22.730Z,923.35
2018-09-14T05:36:54.702Z,923.36
2018-09-14T05:38:25.972Z,923.44
2018-09-14T05:39:57.444Z,923.40
2018-09-14T05:41:29.015Z,923.35
2018-09-14T05:43:00.687Z,923.34
2018-09-14T05:44:32.301Z,923.34
2018-09-14T05:46:03.729Z,923.32
2018-09-14T05:47:35.300Z,923.24
2018-09-14T05:49:06.971Z,923.31
2018-09-14T05:50:38.442Z,923.31
2018-09-14T05:52:10.014Z,923.27
2018-09-14T05:53:41.584Z,923.26
2018-09-14T05:55:13.556Z,923.22
2018-09-14T05:56:44.726Z,923.24
2018-09-14T05:58:16.298Z,923.25
2018-09-14T05:59:47.871Z,923.20
2018-09-14T06:01:19.540Z,923.17
2018-09-14T06:02:51.012Z,923.21
2018-09-14T06:04:22.585Z,923.10
2018-09-14T06:05:54.153Z,923.08
2018-09-14T06:07:26.024Z,922.94
2018-09-14T06:08:57.295Z,922.89
2018-09-14T06:10:28.865Z,922.84
2018-09-14T06:12:00.435Z,922.87
2018-09-14T06:13:32.207Z,922.86
2018-09-14T06:15:03.578Z,922.80
2018-09-14T06:16:35.150Z,922.78
2018-09-14T06:18:06.720Z,922.68
2018-09-14T06:19:38.391Z,922.69
2018-09-14T06:21:09.862Z,922.64
2018-09-14T06:22:41.515Z,922.62
2018-09-14T06:24:13.004Z,922.65
2018-09-14T06:25:44.875Z,922.47
2018-09-14T06:27:16.146Z,922.50
2018-09-14T06:28:47.717Z,922.62
2018-09-14T06:30:19.325Z,922.58
2018-09-14T06:31:50.959Z,922.55
2018-09-14T06:33:22.429Z,922.63
2018-09-14T06:34:54.001Z,922.64
2018-09-14T06:36:25.571Z,922.68
2018-09-14T06:37:57.443Z,922.62
2018-09-14T06:39:28.717Z,922.55
2018-09-14T06:41:00.302Z,922.55
2018-09-14T06:42:31.855Z,922.60
2018-09-14T06:44:03.527Z,922.62
2018-09-14T06:45:34.997Z,922.55
2018-09-14T06:47:06.568Z,922.50
2018-09-14T06:48:38.139Z,922.43
2018-09-14T06:50:09.910Z,922.41
2018-09-14T06:51:41.281Z,922.39
2018-09-14T06:53:12.875Z,922.32
2018-09-14T06:54:44.423Z,922.27
2018-09-14T06:56:16.293Z,922.21
2018-09-14T06:57:47.564Z,922.27
2018-09-14T06:59:19.137Z,922.33
2018-09-14T07:00:50.908Z,922.33
2018-09-14T07:02:22.376Z,922.34
2018-09-14T07:03:53.847Z,922.40
2018-09-14T07:05:25.419Z,922.40
2018-09-14T07:06:56.989Z,922.41
2018-09-14T07:08:28.961Z,922.44
2018-09-14T07:10:00.133Z,922.43
2018-09-14T07:11:31.723Z,922.42
2018-09-14T07:13:03.318Z,922.42
2018-09-14T07:14:34.945Z,922.41
2018-09-14T07:16:06.415Z,922.34
2018-09-14T07:17:37.992Z,922.33
2018-09-14T07:19:09.558Z,922.27
2018-09-14T07:20:41.230Z,922.34
2018-09-14T07:22:12.765Z,922.30
2018-09-14T07:23:44.271Z,922.35
2018-09-14T07:25:15.843Z,922.30
2018-09-14T07:26:47.831Z,922.31
2018-09-14T07:28:19.006Z,922.33
2018-09-14T07:29:50.556Z,922.31
2018-09-14T07:31:22.148Z,922.31
2018-09-14T07:32:54.257Z,922.24
2018-09-14T07:34:25.270Z,922.18
2018-09-14T07:35:56.841Z,922.11
2018-09-14T07:37:28.411Z,922.09
2018-09-14T07:39:00.284Z,922.08
2018-09-14T07:40:31.554Z,922.15
2018-09-14T07:42:03.124Z,922.22
2018-09-14T07:43:34.696Z,922.26
2018-09-14T07:45:06.467Z,922.27
2018-09-14T07:46:37.838Z,922.26
2018-09-14T07:48:09.416Z,922.30
2018-09-14T07:49:40.983Z,922.29
2018-09-14T07:51:12.651Z,922.27
2018-09-14T07:52:44.122Z,922.30
2018-09-14T07:54:15.694Z,922.37
2018-09-14T07:55:47.266Z,922.33
2018-09-14T07:57:19.135Z,922.40
2018-09-14T07:58:50.406Z,922.38
2018-09-14T08:00:21.977Z,922.40
2018-09-14T08:01:53.548Z,922.36
2018-09-14T08:03:25.319Z,922.36
2018-09-14T08:04:57.227Z,922.31
2018-09-14T08:06:28.261Z,922.29
2018-09-14T08:07:59.832Z,922.34
2018-09-14T08:09:31.704Z,922.39
2018-09-14T08:11:02.974Z,922.39
2018-09-14T08:12:34.545Z,922.40
2018-09-14T08:14:06.116Z,922.35
2018-09-14T08:15:37.788Z,922.27
2018-09-14T08:17:09.258Z,922.16
2018-09-14T08:18:40.829Z,922.23
2018-09-14T08:20:12.473Z,922.24
2018-09-14T08:21:45.029Z,922.34
2018-09-14T08:23:15.543Z,922.43
2018-09-14T08:24:47.114Z,922.55
2018-09-14T08:26:18.687Z,922.65
2018-09-14T08:27:50.255Z,922.65
2018-09-14T08:29:21.829Z,922.74
2018-09-14T08:32:25.014Z,922.84
2018-09-14T08:33:56.652Z,922.87
2018-09-14T08:35:28.138Z,922.95
2018-09-14T08:36:59.683Z,922.96
2018-09-14T08:38:31.254Z,923.08
2018-09-14T08:40:03.228Z,923.20
2018-09-14T08:41:34.396Z,923.29
2018-09-14T08:43:05.967Z,923.40
2018-09-14T08:44:37.540Z,923.64
2018-09-14T08:46:09.210Z,923.99
2018-09-14T08:47:40.985Z,924.50
2018-09-14T08:49:12.253Z,925.02
2018-09-14T08:50:43.823Z,925.47
2018-09-14T08:52:15.496Z,925.47
2018-09-14T08:53:46.966Z,925.50
2018-09-14T08:55:18.538Z,925.51
2018-09-14T08:56:50.115Z,925.45
2018-09-14T08:58:22.088Z,925.25
2018-09-14T08:59:53.251Z,924.97
2018-09-14T09:01:24.826Z,925.13
2018-09-14T09:02:56.936Z,925.35
2018-09-14T09:04:28.066Z,925.20
2018-09-14T09:05:59.538Z,925.01
2018-09-14T09:07:31.103Z,924.99
2018-09-14T09:09:02.712Z,925.09
2018-09-14T09:10:34.699Z,924.98
2018-09-14T09:12:05.821Z,924.85
2018-09-14T09:13:37.410Z,924.76
2018-09-14T09:15:08.954Z,924.84
2018-09-14T09:16:40.726Z,924.94
2018-09-14T09:18:12.089Z,925.04
2018-09-14T09:19:43.660Z,925.16
2018-09-14T09:21:15.259Z,925.16
2018-09-14T09:22:46.904Z,925.19
2018-09-14T09:24:18.373Z,925.20
2018-09-14T09:25:50.478Z,925.12
2018-09-14T09:27:21.524Z,925.00
2018-09-14T09:28:53.380Z,925.05
2018-09-14T09:30:24.650Z,925.07
2018-09-14T09:33:27.788Z,925.12
2018-09-14T09:34:59.806Z,925.09
2018-09-14T09:36:30.941Z,925.09
2018-09-14T09:38:02.534Z,925.08
2018-09-14T09:39:34.120Z,925.16
2018-09-14T09:42:37.342Z,925.22
2018-09-14T09:44:08.820Z,925.25
2018-09-14T09:45:40.357Z,925.26
2018-09-14T09:47:11.931Z,925.30
2018-09-14T09:48:43.660Z,925.31
2018-09-14T09:50:15.115Z,925.30
2018-09-14T09:51:46.789Z,925.38
2018-09-14T09:53:18.223Z,925.32
2018-09-14T09:54:49.976Z,925.33
2018-09-14T09:56:21.347Z,925.33
2018-09-14T09:59:24.487Z,925.30
2018-09-14T10:02:27.728Z,925.13
2018-09-14T10:03:59.270Z,924.94
2018-09-14T10:05:30.770Z,924.65
2018-09-14T10:08:34.011Z,924.02
2018-09-14T10:10:05.481Z,923.75
2018-09-14T10:11:37.052Z,923.47
2018-09-14T10:13:08.627Z,923.54
2018-09-14T10:14:40.395Z,923.61
2018-09-14T10:16:11.763Z,923.67
2018-09-14T10:19:14.900Z,923.44
2018-09-14T10:20:46.645Z,923.41
2018-09-14T10:22:18.040Z,923.36
2018-09-14T10:23:50.973Z,923.43
2018-09-14T10:25:22.084Z,923.56
2018-09-14T10:26:53.072Z,923.81
2018-09-14T10:28:24.571Z,923.90
2018-09-14T10:29:56.139Z,923.89
2018-09-14T10:31:27.658Z,923.78
2018-09-14T10:32:59.431Z,923.69
2018-09-14T10:34:31.429Z,923.59
2018-09-14T10:39:05.995Z,923.55
2018-09-14T10:42:08.450Z,923.45
2018-09-14T10:43:40.323Z,923.37
2018-09-14T10:45:12.648Z,923.17
2018-09-14T10:48:14.730Z,923.29
2018-09-14T10:49:46.477Z,923.29
2018-09-14T10:51:18.079Z,923.41
2018-09-14T10:52:49.441Z,923.48
2018-09-14T10:54:21.319Z,923.46
2018-09-14T10:55:52.585Z,923.59
2018-09-14T11:00:27.601Z,923.63
2018-09-14T11:05:02.014Z,923.66
2018-09-14T11:06:34.066Z,923.64
2018-09-14T11:08:05.815Z,923.64
2018-09-14T11:09:36.731Z,923.65
2018-09-14T11:11:08.303Z,923.61
2018-09-14T11:12:40.247Z,923.68
2018-09-14T11:15:43.022Z,923.67
2018-09-14T11:17:14.594Z,923.64
2018-09-14T11:21:49.513Z,923.72
2018-09-14T11:23:20.889Z,923.65
2018-09-14T11:24:52.458Z,923.55
2018-09-14T11:26:24.218Z,923.67
2018-09-14T11:27:55.933Z,923.66
2018-09-14T11:29:27.334Z,923.69
2018-09-14T11:30:58.743Z,923.65
2018-09-14T11:32:30.645Z,923.63
2018-09-14T11:34:02.417Z,923.59
2018-09-14T11:35:33.763Z,923.55
2018-09-14T11:37:05.263Z,923.56
2018-09-14T11:38:36.797Z,923.54
2018-09-14T11:40:09.456Z,923.58
2018-09-14T11:41:41.073Z,923.68
2018-09-14T11:43:11.315Z,923.74
2018-09-14T11:44:43.383Z,923.80
2018-09-14T11:46:14.759Z,923.84
2018-09-14T11:47:46.643Z,923.74
2018-09-14T11:49:17.694Z,923.75
2018-09-14T11:50:49.172Z,923.77
2018-09-14T11:52:20.841Z,923.72
2018-09-14T11:53:52.313Z,923.86
2018-09-14T11:55:23.882Z,923.72
2018-09-14T11:58:27.302Z,923.53
2018-09-14T12:01:30.489Z,923.61
2018-09-14T12:03:01.736Z,923.58
2018-09-14T12:04:33.711Z,923.60
2018-09-14T12:06:04.879Z,923.59
2018-09-14T12:07:36.449Z,923.61
2018-09-14T12:09:08.223Z,923.52
2018-09-14T12:10:39.944Z,923.60
2018-09-14T12:12:11.667Z,923.69
2018-09-14T12:13:43.121Z,923.63
2018-09-14T12:16:46.125Z,923.61
2018-09-14T12:18:17.447Z,923.64
2018-09-14T12:21:20.589Z,923.76
2018-09-14T12:22:52.462Z,923.84
2018-09-14T12:24:23.731Z,924.01
2018-09-14T12:25:55.506Z,924.24
2018-09-14T12:27:26.873Z,924.75
2018-09-14T12:28:59.080Z,925.61
2018-09-14T12:32:01.591Z,926.15
2018-09-14T12:33:33.159Z,926.40
2018-09-14T12:35:04.929Z,926.44
2018-09-14T12:36:36.299Z,926.50
2018-09-14T12:38:08.403Z,926.62
2018-09-14T12:39:39.642Z,926.49
2018-09-14T12:41:11.403Z,926.58
2018-09-14T12:42:42.582Z,926.45
2018-09-14T12:44:14.154Z,926.45
2018-09-14T12:45:45.722Z,926.49
2018-09-14T12:47:17.393Z,926.33
2018-09-14T12:48:48.938Z,926.19
2018-09-14T12:50:20.433Z,926.20
2018-09-14T12:51:52.004Z,926.15
2018-09-14T12:53:23.874Z,926.21
2018-09-14T12:54:55.449Z,926.09
2018-09-14T12:56:26.745Z,925.89
2018-09-14T12:57:58.485Z,925.87
2018-09-14T12:59:29.953Z,926.00
2018-09-14T13:02:32.994Z,925.93
2018-09-14T13:04:04.564Z,925.84
2018-09-14T13:05:36.234Z,925.81
2018-09-14T13:07:07.708Z,925.73
2018-09-14T13:08:39.275Z,925.77
2018-09-14T13:11:42.640Z,925.72
2018-09-14T13:13:13.989Z,925.72
2018-09-14T13:14:45.617Z,925.68
2018-09-14T13:16:17.129Z,925.59
2018-09-14T13:17:48.804Z,925.51
2018-09-14T13:19:20.270Z,925.43
2018-09-14T13:20:51.843Z,925.35
2018-09-14T13:22:23.415Z,925.33
2018-09-14T13:23:55.088Z,925.29
2018-09-14T13:25:26.939Z,925.24
2018-09-14T13:26:58.429Z,925.16
2018-09-14T13:28:30.242Z,925.04
2018-09-14T13:30:01.833Z,924.97
2018-09-14T13:31:32.865Z,925.00
2018-09-14T13:33:04.626Z,925.02
2018-09-14T13:34:35.996Z,924.96
2018-09-14T13:37:39.244Z,924.77
2018-09-14T13:39:10.720Z,924.75
2018-09-14T13:40:42.290Z,924.68
2018-09-14T13:42:14.067Z,924.62
2018-09-14T13:43:45.602Z,924.55
2018-09-14T13:45:17.006Z,924.44
2018-09-14T13:46:48.581Z,924.49
2018-09-14T13:48:20.154Z,924.40
2018-09-14T13:49:52.026Z,924.35
2018-09-14T13:51:23.598Z,924.33
2018-09-14T13:54:26.437Z,924.36
2018-09-14T13:55:58.112Z,924.53
2018-09-14T13:57:29.582Z,924.69
2018-09-14T14:00:32.913Z,924.65
2018-09-14T14:02:04.609Z,924.64
2018-09-14T14:03:36.028Z,924.58
2018-09-14T14:06:39.259Z,924.65
2018-09-14T14:08:11.517Z,924.67
2018-09-14T14:09:42.414Z,924.72
2018-09-14T14:11:13.925Z,924.74
2018-09-14T14:12:45.656Z,924.76
2018-09-14T14:14:17.209Z,924.70
2018-09-14T14:17:20.800Z,924.66
2018-09-14T14:18:52.316Z,924.67
2018-09-14T14:20:23.345Z,924.75
2018-09-14T14:23:26.460Z,924.60
2018-09-14T14:24:58.223Z,924.58
2018-09-14T14:26:29.989Z,924.49
2018-09-14T14:28:01.320Z,924.34
2018-09-14T14:29:33.316Z,924.12
2018-09-14T14:31:04.330Z,924.02
2018-09-14T14:32:36.485Z,923.98
2018-09-14T14:35:38.978Z,924.03
2018-09-14T14:37:10.603Z,924.02
2018-09-14T14:38:42.229Z,924.06
2018-09-14T14:41:45.791Z,924.19
2018-09-14T14:43:17.008Z,924.27
2018-09-14T14:44:48.799Z,924.28
2018-09-14T14:46:20.557Z,924.24
2018-09-14T14:47:51.535Z,924.30
2018-09-14T14:50:56.079Z,924.13
2018-09-14T14:52:26.320Z,924.37
2018-09-14T14:53:58.062Z,924.30
2018-09-14T14:55:29.544Z,924.26
2018-09-14T14:57:01.139Z,924.24
2018-09-14T14:58:32.590Z,924.11
2018-09-14T15:00:04.325Z,923.97
2018-09-14T15:01:35.754Z,923.86
2018-09-14T15:07:42.403Z,923.65
2018-09-14T15:09:13.920Z,923.69
2018-09-14T15:10:45.335Z,923.74
2018-09-14T15:12:16.780Z,923.75
2018-09-14T15:15:20.041Z,923.42
2018-09-14T15:16:51.510Z,923.37
2018-09-14T15:18:23.283Z,923.36
2018-09-14T15:19:55.197Z,923.26
2018-09-14T15:22:58.011Z,923.24
2018-09-14T15:24:29.384Z,923.21
2018-09-14T15:26:00.962Z,923.17
2018-09-14T15:27:33.038Z,923.10
2018-09-14T15:30:35.682Z,923.03
2018-09-14T15:32:07.458Z,922.98
2018-09-14T15:33:39.131Z,922.96
2018-09-14T15:35:10.409Z,922.95
2018-09-14T15:36:41.980Z,922.93
2018-09-14T15:38:13.563Z,922.98
2018-09-14T15:39:45.757Z,922.98
2018-09-14T15:41:17.634Z,923.02
2018-09-14T15:42:48.576Z,923.00
2018-09-14T15:45:52.147Z,922.86
2018-09-14T15:50:26.142Z,922.78
2018-09-14T15:51:57.859Z,922.68
2018-09-14T15:53:29.483Z,922.65
2018-09-14T15:56:33.840Z,922.65
2018-09-14T15:58:04.098Z,922.67
2018-09-14T15:59:35.569Z,922.74
2018-09-14T16:01:07.344Z,922.64
2018-09-14T16:02:38.714Z,922.61
2018-09-14T16:04:10.698Z,922.66
2018-09-14T16:05:41.857Z,922.63
2018-09-14T16:08:45.149Z,922.62
2018-09-14T16:10:16.674Z,922.70
2018-09-14T16:11:49.284Z,922.68
2018-09-14T16:13:19.955Z,922.73
2018-09-14T16:14:51.970Z,922.80
2018-09-14T16:16:22.962Z,922.75
2018-09-14T16:17:54.635Z,922.71
2018-09-14T16:19:26.815Z,922.70
2018-09-14T16:20:57.880Z,922.64
2018-09-14T16:22:30.839Z,922.57
2018-09-14T16:24:01.265Z,922.49
2018-09-14T16:25:32.291Z,922.46
2018-09-14T16:27:03.862Z,922.39
2018-09-14T16:28:35.534Z,922.40
2018-09-14T16:30:07.434Z,922.34
2018-09-14T16:31:38.638Z,922.30
2018-09-14T16:33:10.401Z,922.35
2018-09-14T16:34:42.198Z,922.37
2018-09-14T16:36:13.291Z,922.32
2018-09-14T16:39:16.435Z,922.26
2018-09-14T16:40:48.372Z,922.29
2018-09-14T16:42:19.582Z,922.32
2018-09-14T16:45:22.718Z,922.26
2018-09-14T16:46:54.713Z,922.29
2018-09-14T16:48:26.178Z,922.43
2018-09-14T16:49:57.750Z,922.51
2018-09-14T16:53:00.936Z,922.50
2018-09-14T16:56:03.937Z,922.62
2018-09-14T16:57:35.310Z,922.57
2018-09-14T16:59:07.226Z,922.61
2018-09-14T17:00:39.373Z,922.47
2018-09-14T17:02:10.325Z,922.45
2018-09-14T17:03:41.737Z,922.45
2018-09-14T17:05:13.775Z,922.55
2018-09-14T17:06:44.713Z,922.50
2018-09-14T17:08:16.284Z,922.49
2018-09-14T17:09:47.854Z,922.35
2018-09-14T17:11:20.198Z,922.33
2018-09-14T17:12:51.046Z,922.32
2018-09-14T17:14:22.623Z,922.30
2018-09-14T17:15:54.695Z,922.31
2018-09-14T17:17:26.037Z,922.19
2018-09-14T17:18:57.836Z,922.20
2018-09-14T17:20:28.895Z,922.21
2018-09-14T17:22:00.664Z,922.18
2018-09-14T17:23:32.232Z,922.13
2018-09-14T17:25:03.586Z,922.04
2018-09-14T17:26:37.563Z,922.04
2018-09-14T17:28:06.857Z,922.07
2018-09-14T17:29:39.495Z,922.04
2018-09-14T17:31:09.845Z,921.95
2018-09-14T17:32:41.415Z,921.93
2018-09-14T17:34:13.685Z,922.00
2018-09-14T17:35:45.321Z,921.98
2018-09-14T17:37:16.620Z,921.96
2018-09-14T17:38:49.220Z,921.81
2018-09-14T17:40:19.574Z,921.73
2018-09-14T17:41:52.287Z,921.58
2018-09-14T17:43:22.497Z,921.51
2018-09-14T17:44:54.224Z,921.47
2018-09-14T17:46:25.833Z,921.40
2018-09-14T17:49:30.403Z,921.38
2018-09-14T17:51:01.184Z,921.36
2018-09-14T17:52:31.926Z,921.33
2018-09-14T17:54:04.110Z,921.38
2018-09-14T17:57:07.504Z,921.41
2018-09-14T17:58:38.442Z,921.36
2018-09-14T18:01:41.300Z,921.32
2018-09-14T18:04:44.658Z,921.17
2018-09-14T18:06:16.335Z,921.14
2018-09-14T18:07:47.670Z,921.11
2018-09-14T18:10:50.806Z,920.99
2018-09-14T18:12:22.586Z,920.96
2018-09-14T18:13:54.135Z,921.04
2018-09-14T18:15:26.088Z,921.07
2018-09-14T18:16:57.459Z,921.10
2018-09-14T18:18:28.607Z,921.10
2018-09-14T18:20:00.223Z,921.05
2018-09-14T18:21:31.840Z,921.07
2018-09-14T18:23:03.406Z,921.08
2018-09-14T18:24:34.894Z,921.01
2018-09-14T18:26:06.747Z,921.11
2018-09-14T18:27:38.506Z,921.13
2018-09-14T18:30:41.986Z,921.22
2018-09-14T18:32:13.295Z,921.16
2018-09-14T18:33:44.501Z,921.14
2018-09-14T18:35:15.866Z,921.10
2018-09-14T18:36:47.675Z,921.08
2018-09-14T18:38:19.190Z,921.07
2018-09-14T18:39:50.883Z,921.08
2018-09-14T18:41:22.360Z,921.10
2018-09-14T18:42:53.823Z,921.14
2018-09-14T18:44:26.303Z,921.12
2018-09-14T18:45:57.802Z,921.18
2018-09-14T18:49:01.804Z,921.20
2018-09-14T18:50:33.235Z,921.19
2018-09-14T18:52:03.207Z,921.16
2018-09-14T18:53:34.723Z,921.12
2018-09-14T18:55:06.585Z,921.20
2018-09-14T18:56:37.898Z,921.27
2018-09-14T18:58:09.492Z,921.24
2018-09-14T18:59:40.995Z,921.20
2018-09-14T19:01:12.840Z,921.18
2018-09-14T19:02:44.545Z,921.14
2018-09-14T19:04:16.751Z,921.18
2018-09-14T19:07:19.145Z,921.28
2018-09-14T19:10:21.984Z,921.34
2018-09-14T19:11:53.963Z,921.33
2018-09-14T19:13:25.807Z,921.33
2018-09-14T19:14:56.687Z,921.34
2018-09-14T19:16:28.584Z,921.31
2018-09-14T19:19:31.606Z,921.22
2018-09-14T19:21:03.125Z,921.24
2018-09-14T19:22:34.583Z,921.17
2018-09-14T19:24:06.161Z,921.25
2018-09-14T19:25:37.811Z,921.23
2018-09-14T19:27:09.855Z,921.20
2018-09-14T19:30:12.452Z,921.19
2018-09-14T19:31:44.218Z,921.17
2018-09-14T19:33:16.045Z,921.16
2018-09-14T19:37:50.373Z,921.09
2018-09-14T19:39:21.878Z,921.05
2018-09-14T19:40:53.463Z,921.06
2018-09-14T19:42:24.966Z,921.02
2018-09-14T19:43:56.841Z,921.03
2018-09-14T19:45:28.107Z,920.99
2018-09-14T19:46:59.681Z,920.99
2018-09-14T19:50:03.336Z,921.08
2018-09-14T19:51:35.005Z,921.13
2018-09-14T19:53:05.964Z,921.12
2018-09-14T19:54:37.537Z,921.21
2018-09-14T19:56:09.207Z,921.25
2018-09-14T20:00:44.023Z,921.29
2018-09-14T20:02:15.493Z,921.34
2018-09-14T20:03:47.166Z,921.30
2018-09-14T20:05:18.537Z,921.30
2018-09-14T20:06:50.145Z,921.33
2018-09-14T20:08:21.878Z,921.32
2018-09-14T20:09:53.452Z,921.27
2018-09-14T20:11:24.820Z,921.28
2018-09-14T20:12:56.392Z,921.35
2018-09-14T20:14:28.594Z,921.32
2018-09-14T20:15:59.536Z,921.37
2018-09-14T20:17:31.177Z,921.38
2018-09-14T20:19:02.679Z,921.36
2018-09-14T20:20:34.654Z,921.40
2018-09-14T20:22:06.026Z,921.40
2018-09-14T20:23:37.392Z,921.47
2018-09-14T20:25:09.169Z,921.51
2018-09-14T20:26:40.735Z,921.49
2018-09-14T20:28:12.133Z,921.52
2018-09-14T20:29:43.679Z,921.58
2018-09-14T20:31:15.453Z,921.58
2018-09-14T20:32:46.920Z,921.59
2018-09-14T20:34:18.391Z,921.63
2018-09-14T20:35:49.964Z,921.63
2018-09-14T20:37:21.582Z,921.68
2018-09-14T20:40:25.082Z,921.69
2018-09-14T20:41:56.553Z,921.67
2018-09-14T20:43:27.927Z,921.73
2018-09-14T20:46:31.165Z,921.78
2018-09-14T20:49:34.108Z,921.85
2018-09-14T20:52:37.352Z,921.86
2018-09-14T20:57:12.923Z,921.92
2018-09-14T20:58:43.695Z,921.89
2018-09-14T21:00:15.766Z,921.97
2018-09-14T21:01:46.987Z,921.98
2018-09-14T21:03:18.309Z,921.96
2018-09-14T21:04:50.189Z,921.95
2018-09-14T21:06:22.325Z,921.92
2018-09-14T21:07:53.029Z,921.94